sensor_id;sensor_type;location;lat;lon;timestamp;temperature;humidity
12512;DHT22;6321;53.798;10.382;2022-08-19T00:00:21;18.80;99.90
12512;DHT22;6321;53.798;10.382;2022-08-19T00:02:47;19.30;99.90
12512;DHT22;6321;53.798;10.382;2022-08-19T00:05:14;18.90;99.90
12512;DHT22;6321;53.798;10.382;2022-08-19T00:07:41;18.90;99.90
12512;DHT22;6321;53.798;10.382;2022-08-19T00:10:09;19.20;99.90
12512;DHT22;6321;53.798;10.382;2022-08-19T00:12:37;19.10;99.90
12512;DHT22;6321;53.798;10.382;2022-08-19T00:15:06;19.20;99.90
12512;DHT22;6321;53.798;10.382;2022-08-19T00:17:32;19.10;99.90
12512;DHT22;6321;53.798;10.382;2022-08-19T00:19:58;18.90;99.90
12512;DHT22;6321;53.798;10.382;2022-08-19T00:22:23;18.90;99.90
12512;DHT22;6321;53.798;10.382;2022-08-19T00:24:49;18.80;99.90
12512;DHT22;6321;53.798;10.382;2022-08-19T00:27:15;18.80;99.90
12512;DHT22;6321;53.798;10.382;2022-08-19T00:29:41;18.70;99.90
12512;DHT22;6321;53.798;10.382;2022-08-19T00:32:07;18.40;99.90
12512;DHT22;6321;53.798;10.382;2022-08-19T00:37:00;18.90;99.90
12512;DHT22;6321;53.798;10.382;2022-08-19T00:39:26;18.80;99.90
12512;DHT22;6321;53.798;10.382;2022-08-19T00:44:22;18.90;99.90
12512;DHT22;6321;53.798;10.382;2022-08-19T00:46:50;19.80;99.90
12512;DHT22;6321;53.798;10.382;2022-08-19T00:49:35;18.90;99.90
12512;DHT22;6321;53.798;10.382;2022-08-19T00:52:06;18.90;99.90
12512;DHT22;6321;53.798;10.382;2022-08-19T00:54:36;19.00;99.90
12512;DHT22;6321;53.798;10.382;2022-08-19T00:59:31;19.00;99.90
12512;DHT22;6321;53.798;10.382;2022-08-19T01:01:59;18.90;99.90
12512;DHT22;6321;53.798;10.382;2022-08-19T01:04:25;18.90;99.90
12512;DHT22;6321;53.798;10.382;2022-08-19T01:06:51;19.40;99.90
12512;DHT22;6321;53.798;10.382;2022-08-19T01:09:17;18.90;99.90
12512;DHT22;6321;53.798;10.382;2022-08-19T01:11:44;18.10;99.90
12512;DHT22;6321;53.798;10.382;2022-08-19T01:16:39;19.00;99.90
12512;DHT22;6321;53.798;10.382;2022-08-19T01:19:27;19.40;99.90
12512;DHT22;6321;53.798;10.382;2022-08-19T01:22:03;19.60;99.90
12512;DHT22;6321;53.798;10.382;2022-08-19T01:24:31;19.10;99.90
12512;DHT22;6321;53.798;10.382;2022-08-19T01:26:57;19.00;99.90
12512;DHT22;6321;53.798;10.382;2022-08-19T01:29:23;19.00;99.90
12512;DHT22;6321;53.798;10.382;2022-08-19T01:31:49;18.90;99.90
12512;DHT22;6321;53.798;10.382;2022-08-19T01:34:18;19.40;99.90
12512;DHT22;6321;53.798;10.382;2022-08-19T01:36:45;18.90;99.90
12512;DHT22;6321;53.798;10.382;2022-08-19T01:39:17;19.60;99.90
12512;DHT22;6321;53.798;10.382;2022-08-19T01:41:45;18.80;99.90
12512;DHT22;6321;53.798;10.382;2022-08-19T01:44:11;18.90;99.90
12512;DHT22;6321;53.798;10.382;2022-08-19T01:46:37;18.70;99.90
12512;DHT22;6321;53.798;10.382;2022-08-19T01:49:04;18.90;99.90
12512;DHT22;6321;53.798;10.382;2022-08-19T01:51:31;19.70;99.90
12512;DHT22;6321;53.798;10.382;2022-08-19T01:56:24;18.90;99.90
12512;DHT22;6321;53.798;10.382;2022-08-19T01:58:58;18.70;99.90
12512;DHT22;6321;53.798;10.382;2022-08-19T02:01:26;19.00;99.90
12512;DHT22;6321;53.798;10.382;2022-08-19T02:03:51;18.90;99.90
12512;DHT22;6321;53.798;10.382;2022-08-19T02:06:19;18.80;99.90
12512;DHT22;6321;53.798;10.382;2022-08-19T02:08:45;18.70;99.90
12512;DHT22;6321;53.798;10.382;2022-08-19T02:11:19;18.90;99.90
12512;DHT22;6321;53.798;10.382;2022-08-19T02:13:46;19.10;99.90
12512;DHT22;6321;53.798;10.382;2022-08-19T02:16:12;18.80;99.90
12512;DHT22;6321;53.798;10.382;2022-08-19T02:18:37;18.90;99.90
12512;DHT22;6321;53.798;10.382;2022-08-19T02:21:03;18.90;99.90
12512;DHT22;6321;53.798;10.382;2022-08-19T02:23:29;18.60;99.90
12512;DHT22;6321;53.798;10.382;2022-08-19T02:25:56;19.60;99.90
12512;DHT22;6321;53.798;10.382;2022-08-19T02:28:22;19.60;99.90
12512;DHT22;6321;53.798;10.382;2022-08-19T02:30:48;18.60;99.90
12512;DHT22;6321;53.798;10.382;2022-08-19T02:33:15;19.00;99.90
12512;DHT22;6321;53.798;10.382;2022-08-19T02:35:45;19.60;99.90
12512;DHT22;6321;53.798;10.382;2022-08-19T02:38:11;18.90;99.90
12512;DHT22;6321;53.798;10.382;2022-08-19T02:41:02;19.00;99.90
12512;DHT22;6321;53.798;10.382;2022-08-19T02:43:31;18.70;99.90
12512;DHT22;6321;53.798;10.382;2022-08-19T02:45:57;18.80;99.90
12512;DHT22;6321;53.798;10.382;2022-08-19T02:48:24;18.80;99.90
12512;DHT22;6321;53.798;10.382;2022-08-19T02:50:52;18.80;99.90
12512;DHT22;6321;53.798;10.382;2022-08-19T02:53:26;19.80;99.90
12512;DHT22;6321;53.798;10.382;2022-08-19T02:58:21;19.00;99.90
12512;DHT22;6321;53.798;10.382;2022-08-19T03:00:50;18.60;99.90
12512;DHT22;6321;53.798;10.382;2022-08-19T03:03:16;18.90;99.90
12512;DHT22;6321;53.798;10.382;2022-08-19T03:10:47;19.00;99.90
12512;DHT22;6321;53.798;10.382;2022-08-19T03:13:16;18.70;99.90
12512;DHT22;6321;53.798;10.382;2022-08-19T03:15:47;19.80;99.90
12512;DHT22;6321;53.798;10.382;2022-08-19T03:18:13;18.90;99.90
12512;DHT22;6321;53.798;10.382;2022-08-19T03:20:46;19.10;99.90
12512;DHT22;6321;53.798;10.382;2022-08-19T03:23:13;18.90;99.90
12512;DHT22;6321;53.798;10.382;2022-08-19T03:25:40;18.80;99.90
12512;DHT22;6321;53.798;10.382;2022-08-19T03:28:07;18.80;99.90
12512;DHT22;6321;53.798;10.382;2022-08-19T03:33:01;18.90;99.90
12512;DHT22;6321;53.798;10.382;2022-08-19T03:35:27;18.90;99.90
12512;DHT22;6321;53.798;10.382;2022-08-19T03:37:53;18.90;99.90
12512;DHT22;6321;53.798;10.382;2022-08-19T03:40:19;18.80;99.90
12512;DHT22;6321;53.798;10.382;2022-08-19T03:42:45;19.50;99.90
12512;DHT22;6321;53.798;10.382;2022-08-19T03:45:11;18.70;99.90
12512;DHT22;6321;53.798;10.382;2022-08-19T03:47:38;18.70;99.90
12512;DHT22;6321;53.798;10.382;2022-08-19T03:50:04;18.30;99.90
12512;DHT22;6321;53.798;10.382;2022-08-19T03:52:30;18.40;99.90
12512;DHT22;6321;53.798;10.382;2022-08-19T03:54:56;18.90;99.90
12512;DHT22;6321;53.798;10.382;2022-08-19T03:57:22;18.70;99.90
12512;DHT22;6321;53.798;10.382;2022-08-19T04:02:14;18.90;99.90
12512;DHT22;6321;53.798;10.382;2022-08-19T04:04:42;19.50;99.90
12512;DHT22;6321;53.798;10.382;2022-08-19T04:07:10;18.90;99.90
12512;DHT22;6321;53.798;10.382;2022-08-19T04:09:37;18.90;99.90
12512;DHT22;6321;53.798;10.382;2022-08-19T04:14:31;18.70;99.90
12512;DHT22;6321;53.798;10.382;2022-08-19T04:16:58;18.90;99.90
12512;DHT22;6321;53.798;10.382;2022-08-19T04:21:54;18.70;99.90
12512;DHT22;6321;53.798;10.382;2022-08-19T04:24:21;18.70;99.90
12512;DHT22;6321;53.798;10.382;2022-08-19T04:26:48;19.40;99.90
12512;DHT22;6321;53.798;10.382;2022-08-19T04:29:18;19.00;99.90
12512;DHT22;6321;53.798;10.382;2022-08-19T04:31:45;19.00;99.90
12512;DHT22;6321;53.798;10.382;2022-08-19T04:34:13;18.20;99.90
12512;DHT22;6321;53.798;10.382;2022-08-19T04:36:41;18.90;99.90
12512;DHT22;6321;53.798;10.382;2022-08-19T04:39:11;19.00;99.90
12512;DHT22;6321;53.798;10.382;2022-08-19T04:41:37;19.00;99.90
12512;DHT22;6321;53.798;10.382;2022-08-19T04:44:22;19.10;99.90
12512;DHT22;6321;53.798;10.382;2022-08-19T04:46:49;20.20;99.90
12512;DHT22;6321;53.798;10.382;2022-08-19T04:49:18;19.30;99.90
12512;DHT22;6321;53.798;10.382;2022-08-19T04:51:45;19.00;99.90
12512;DHT22;6321;53.798;10.382;2022-08-19T04:54:13;19.20;99.90
12512;DHT22;6321;53.798;10.382;2022-08-19T04:56:40;19.10;99.90
12512;DHT22;6321;53.798;10.382;2022-08-19T04:59:06;19.00;99.90
12512;DHT22;6321;53.798;10.382;2022-08-19T05:01:33;19.00;99.90
12512;DHT22;6321;53.798;10.382;2022-08-19T05:04:03;19.80;99.90
12512;DHT22;6321;53.798;10.382;2022-08-19T05:06:31;20.10;99.90
12512;DHT22;6321;53.798;10.382;2022-08-19T05:13:57;19.00;99.90
12512;DHT22;6321;53.798;10.382;2022-08-19T05:16:25;19.30;99.90
12512;DHT22;6321;53.798;10.382;2022-08-19T05:18:51;19.50;99.90
12512;DHT22;6321;53.798;10.382;2022-08-19T05:21:36;18.20;99.90
12512;DHT22;6321;53.798;10.382;2022-08-19T05:24:22;18.30;99.90
12512;DHT22;6321;53.798;10.382;2022-08-19T05:26:50;18.50;99.90
12512;DHT22;6321;53.798;10.382;2022-08-19T05:29:20;19.50;99.90
12512;DHT22;6321;53.798;10.382;2022-08-19T05:34:15;19.20;99.90
12512;DHT22;6321;53.798;10.382;2022-08-19T05:36:43;20.00;99.90
12512;DHT22;6321;53.798;10.382;2022-08-19T05:39:14;19.30;99.90
12512;DHT22;6321;53.798;10.382;2022-08-19T05:41:53;19.10;99.90
12512;DHT22;6321;53.798;10.382;2022-08-19T05:44:20;19.10;99.90
12512;DHT22;6321;53.798;10.382;2022-08-19T05:46:47;19.20;99.90
12512;DHT22;6321;53.798;10.382;2022-08-19T05:49:15;19.40;99.90
12512;DHT22;6321;53.798;10.382;2022-08-19T05:51:42;19.20;99.90
12512;DHT22;6321;53.798;10.382;2022-08-19T05:54:09;19.30;99.90
12512;DHT22;6321;53.798;10.382;2022-08-19T05:56:36;18.20;99.90
12512;DHT22;6321;53.798;10.382;2022-08-19T05:59:05;19.20;99.90
12512;DHT22;6321;53.798;10.382;2022-08-19T06:01:38;19.30;99.90
12512;DHT22;6321;53.798;10.382;2022-08-19T06:09:04;19.20;99.90
12512;DHT22;6321;53.798;10.382;2022-08-19T06:11:43;19.40;99.90
12512;DHT22;6321;53.798;10.382;2022-08-19T06:14:12;19.30;99.90
12512;DHT22;6321;53.798;10.382;2022-08-19T06:16:40;19.80;99.90
12512;DHT22;6321;53.798;10.382;2022-08-19T06:21:36;19.20;99.90
12512;DHT22;6321;53.798;10.382;2022-08-19T06:24:05;19.60;99.90
12512;DHT22;6321;53.798;10.382;2022-08-19T06:26:31;19.10;99.90
12512;DHT22;6321;53.798;10.382;2022-08-19T06:28:58;19.00;99.90
12512;DHT22;6321;53.798;10.382;2022-08-19T06:31:27;19.40;99.90
12512;DHT22;6321;53.798;10.382;2022-08-19T06:33:53;19.20;99.90
12512;DHT22;6321;53.798;10.382;2022-08-19T06:36:24;19.20;99.90
12512;DHT22;6321;53.798;10.382;2022-08-19T06:38:54;19.20;99.90
12512;DHT22;6321;53.798;10.382;2022-08-19T06:41:20;19.30;99.90
12512;DHT22;6321;53.798;10.382;2022-08-19T06:43:45;19.20;99.90
12512;DHT22;6321;53.798;10.382;2022-08-19T06:46:14;19.20;99.90
12512;DHT22;6321;53.798;10.382;2022-08-19T06:48:42;19.20;99.90
12512;DHT22;6321;53.798;10.382;2022-08-19T06:53:34;19.30;99.90
12512;DHT22;6321;53.798;10.382;2022-08-19T06:56:01;18.50;99.90
12512;DHT22;6321;53.798;10.382;2022-08-19T06:58:31;19.70;99.90
12512;DHT22;6321;53.798;10.382;2022-08-19T07:03:32;19.20;99.90
12512;DHT22;6321;53.798;10.382;2022-08-19T07:06:06;19.10;99.90
12512;DHT22;6321;53.798;10.382;2022-08-19T07:08:36;19.30;99.90
12512;DHT22;6321;53.798;10.382;2022-08-19T07:11:10;19.40;99.90
12512;DHT22;6321;53.798;10.382;2022-08-19T07:13:37;18.60;99.90
12512;DHT22;6321;53.798;10.382;2022-08-19T07:16:06;19.20;99.90
12512;DHT22;6321;53.798;10.382;2022-08-19T07:21:09;19.20;99.90
12512;DHT22;6321;53.798;10.382;2022-08-19T07:23:35;19.10;99.90
12512;DHT22;6321;53.798;10.382;2022-08-19T07:31:00;19.10;99.90
12512;DHT22;6321;53.798;10.382;2022-08-19T07:35:55;19.20;99.90
12512;DHT22;6321;53.798;10.382;2022-08-19T07:38:21;19.40;99.90
12512;DHT22;6321;53.798;10.382;2022-08-19T07:40:47;19.30;99.90
12512;DHT22;6321;53.798;10.382;2022-08-19T07:43:13;19.30;99.90
12512;DHT22;6321;53.798;10.382;2022-08-19T07:45:40;20.20;99.90
12512;DHT22;6321;53.798;10.382;2022-08-19T07:48:07;20.10;99.90
12512;DHT22;6321;53.798;10.382;2022-08-19T07:50:33;19.40;99.90
12512;DHT22;6321;53.798;10.382;2022-08-19T07:52:58;19.40;99.90
12512;DHT22;6321;53.798;10.382;2022-08-19T07:55:25;19.40;99.90
12512;DHT22;6321;53.798;10.382;2022-08-19T07:57:52;19.00;99.90
12512;DHT22;6321;53.798;10.382;2022-08-19T08:00:19;19.70;99.90
12512;DHT22;6321;53.798;10.382;2022-08-19T08:02:45;19.70;99.90
12512;DHT22;6321;53.798;10.382;2022-08-19T08:07:56;19.70;99.90
12512;DHT22;6321;53.798;10.382;2022-08-19T08:10:40;19.70;99.90
12512;DHT22;6321;53.798;10.382;2022-08-19T08:13:06;20.00;99.90
12512;DHT22;6321;53.798;10.382;2022-08-19T08:15:33;20.10;99.90
12512;DHT22;6321;53.798;10.382;2022-08-19T08:17:58;20.00;99.90
12512;DHT22;6321;53.798;10.382;2022-08-19T08:20:24;20.00;99.90
12512;DHT22;6321;53.798;10.382;2022-08-19T08:22:50;20.10;99.90
12512;DHT22;6321;53.798;10.382;2022-08-19T08:25:36;20.40;99.90
12512;DHT22;6321;53.798;10.382;2022-08-19T08:28:03;20.00;99.90
12512;DHT22;6321;53.798;10.382;2022-08-19T08:30:30;20.70;99.90
12512;DHT22;6321;53.798;10.382;2022-08-19T08:35:25;19.90;99.90
12512;DHT22;6321;53.798;10.382;2022-08-19T08:37:53;20.40;99.90
12512;DHT22;6321;53.798;10.382;2022-08-19T08:43:04;20.00;99.90
12512;DHT22;6321;53.798;10.382;2022-08-19T08:48:04;20.00;99.90
12512;DHT22;6321;53.798;10.382;2022-08-19T08:53:07;20.00;99.90
12512;DHT22;6321;53.798;10.382;2022-08-19T08:55:34;20.30;99.90
12512;DHT22;6321;53.798;10.382;2022-08-19T08:58:09;19.50;99.90
12512;DHT22;6321;53.798;10.382;2022-08-19T09:00:42;20.10;99.90
12512;DHT22;6321;53.798;10.382;2022-08-19T09:06:02;20.10;99.90
12512;DHT22;6321;53.798;10.382;2022-08-19T09:08:38;20.10;99.90
12512;DHT22;6321;53.798;10.382;2022-08-19T09:11:08;20.10;99.90
12512;DHT22;6321;53.798;10.382;2022-08-19T09:16:29;20.10;99.90
12512;DHT22;6321;53.798;10.382;2022-08-19T09:19:00;20.40;99.90
12512;DHT22;6321;53.798;10.382;2022-08-19T09:21:30;19.90;99.90
12512;DHT22;6321;53.798;10.382;2022-08-19T09:28:52;20.00;99.90
12512;DHT22;6321;53.798;10.382;2022-08-19T09:33:47;20.00;99.90
12512;DHT22;6321;53.798;10.382;2022-08-19T09:36:15;20.80;99.90
12512;DHT22;6321;53.798;10.382;2022-08-19T09:38:41;19.90;99.90
12512;DHT22;6321;53.798;10.382;2022-08-19T09:43:37;19.90;99.90
12512;DHT22;6321;53.798;10.382;2022-08-19T09:46:05;20.40;99.90
12512;DHT22;6321;53.798;10.382;2022-08-19T09:48:36;19.90;99.90
12512;DHT22;6321;53.798;10.382;2022-08-19T09:55:57;19.90;99.90
12512;DHT22;6321;53.798;10.382;2022-08-19T10:00:54;20.00;99.90
12512;DHT22;6321;53.798;10.382;2022-08-19T10:03:20;20.00;99.90
12512;DHT22;6321;53.798;10.382;2022-08-19T10:05:46;19.90;99.90
12512;DHT22;6321;53.798;10.382;2022-08-19T10:08:25;20.50;99.90
12512;DHT22;6321;53.798;10.382;2022-08-19T10:10:51;20.20;99.90
12512;DHT22;6321;53.798;10.382;2022-08-19T10:15:50;20.20;99.90
12512;DHT22;6321;53.798;10.382;2022-08-19T10:18:17;20.00;99.90
12512;DHT22;6321;53.798;10.382;2022-08-19T10:20:44;20.80;99.90
12512;DHT22;6321;53.798;10.382;2022-08-19T10:23:11;20.50;99.90
12512;DHT22;6321;53.798;10.382;2022-08-19T10:25:37;20.00;99.90
12512;DHT22;6321;53.798;10.382;2022-08-19T10:28:03;21.20;99.90
12512;DHT22;6321;53.798;10.382;2022-08-19T10:30:29;20.30;99.90
12512;DHT22;6321;53.798;10.382;2022-08-19T10:32:56;20.30;99.90
12512;DHT22;6321;53.798;10.382;2022-08-19T10:35:21;20.20;99.90
12512;DHT22;6321;53.798;10.382;2022-08-19T10:37:48;20.30;99.90
12512;DHT22;6321;53.798;10.382;2022-08-19T10:40:13;21.10;99.90
12512;DHT22;6321;53.798;10.382;2022-08-19T10:45:06;20.20;99.90
12512;DHT22;6321;53.798;10.382;2022-08-19T10:47:33;20.30;99.90
12512;DHT22;6321;53.798;10.382;2022-08-19T10:49:59;20.30;99.90
12512;DHT22;6321;53.798;10.382;2022-08-19T10:52:45;20.30;99.90
12512;DHT22;6321;53.798;10.382;2022-08-19T10:55:12;20.40;99.90
12512;DHT22;6321;53.798;10.382;2022-08-19T10:57:56;20.40;99.90
12512;DHT22;6321;53.798;10.382;2022-08-19T11:00:23;20.30;99.90
12512;DHT22;6321;53.798;10.382;2022-08-19T11:05:18;20.40;99.90
12512;DHT22;6321;53.798;10.382;2022-08-19T11:07:45;19.70;99.90
12512;DHT22;6321;53.798;10.382;2022-08-19T11:10:13;19.40;99.90
12512;DHT22;6321;53.798;10.382;2022-08-19T11:15:10;20.60;99.90
12512;DHT22;6321;53.798;10.382;2022-08-19T11:17:39;20.40;99.90
12512;DHT22;6321;53.798;10.382;2022-08-19T11:20:13;20.80;99.90
12512;DHT22;6321;53.798;10.382;2022-08-19T11:22:40;21.80;99.90
12512;DHT22;6321;53.798;10.382;2022-08-19T11:25:06;20.50;99.90
12512;DHT22;6321;53.798;10.382;2022-08-19T11:27:33;21.00;99.90
12512;DHT22;6321;53.798;10.382;2022-08-19T11:29:59;20.90;99.90
12512;DHT22;6321;53.798;10.382;2022-08-19T11:34:52;21.10;99.90
12512;DHT22;6321;53.798;10.382;2022-08-19T11:37:18;21.00;99.90
12512;DHT22;6321;53.798;10.382;2022-08-19T11:42:11;21.30;99.90
12512;DHT22;6321;53.798;10.382;2022-08-19T11:44:55;21.50;99.90
12512;DHT22;6321;53.798;10.382;2022-08-19T11:47:21;21.70;99.90
12512;DHT22;6321;53.798;10.382;2022-08-19T11:49:47;22.60;99.90
12512;DHT22;6321;53.798;10.382;2022-08-19T11:52:13;21.70;99.90
12512;DHT22;6321;53.798;10.382;2022-08-19T11:54:39;21.60;99.90
12512;DHT22;6321;53.798;10.382;2022-08-19T11:57:05;21.80;99.90
12512;DHT22;6321;53.798;10.382;2022-08-19T11:59:31;21.70;99.90
12512;DHT22;6321;53.798;10.382;2022-08-19T12:04:24;22.90;99.90
12512;DHT22;6321;53.798;10.382;2022-08-19T12:06:50;22.10;99.90
12512;DHT22;6321;53.798;10.382;2022-08-19T12:11:43;22.30;99.90
12512;DHT22;6321;53.798;10.382;2022-08-19T12:14:11;22.20;99.90
12512;DHT22;6321;53.798;10.382;2022-08-19T12:16:37;22.40;99.90
12512;DHT22;6321;53.798;10.382;2022-08-19T12:19:04;22.30;99.90
12512;DHT22;6321;53.798;10.382;2022-08-19T12:21:32;22.50;99.90
12512;DHT22;6321;53.798;10.382;2022-08-19T12:24:01;22.30;99.90
12512;DHT22;6321;53.798;10.382;2022-08-19T12:26:28;23.10;99.90
12512;DHT22;6321;53.798;10.382;2022-08-19T12:28:55;22.70;99.90
12512;DHT22;6321;53.798;10.382;2022-08-19T12:31:21;22.60;99.90
12512;DHT22;6321;53.798;10.382;2022-08-19T12:33:47;22.60;99.90
12512;DHT22;6321;53.798;10.382;2022-08-19T12:36:15;22.50;99.90
12512;DHT22;6321;53.798;10.382;2022-08-19T12:38:41;22.70;99.90
12512;DHT22;6321;53.798;10.382;2022-08-19T12:41:11;22.20;99.90
12512;DHT22;6321;53.798;10.382;2022-08-19T12:43:38;22.90;99.90
12512;DHT22;6321;53.798;10.382;2022-08-19T12:46:05;22.50;99.90
12512;DHT22;6321;53.798;10.382;2022-08-19T12:48:33;22.70;99.90
12512;DHT22;6321;53.798;10.382;2022-08-19T12:50:59;22.80;99.90
12512;DHT22;6321;53.798;10.382;2022-08-19T12:53:25;22.60;99.90
12512;DHT22;6321;53.798;10.382;2022-08-19T12:55:55;22.80;99.90
12512;DHT22;6321;53.798;10.382;2022-08-19T12:58:22;22.10;99.90
12512;DHT22;6321;53.798;10.382;2022-08-19T13:00:48;23.10;99.90
12512;DHT22;6321;53.798;10.382;2022-08-19T13:03:14;22.80;99.90
12512;DHT22;6321;53.798;10.382;2022-08-19T13:05:41;23.50;99.90
12512;DHT22;6321;53.798;10.382;2022-08-19T13:08:08;23.30;99.90
12512;DHT22;6321;53.798;10.382;2022-08-19T13:10:35;23.30;99.90
12512;DHT22;6321;53.798;10.382;2022-08-19T13:15:34;23.00;99.90
12512;DHT22;6321;53.798;10.382;2022-08-19T13:18:00;23.10;99.90
12512;DHT22;6321;53.798;10.382;2022-08-19T13:20:26;23.10;99.90
12512;DHT22;6321;53.798;10.382;2022-08-19T13:22:53;24.00;99.90
12512;DHT22;6321;53.798;10.382;2022-08-19T13:25:19;23.90;99.90
12512;DHT22;6321;53.798;10.382;2022-08-19T13:27:47;23.10;99.90
12512;DHT22;6321;53.798;10.382;2022-08-19T13:30:14;23.30;99.90
12512;DHT22;6321;53.798;10.382;2022-08-19T13:32:59;23.30;99.90
12512;DHT22;6321;53.798;10.382;2022-08-19T13:35:38;23.40;99.90
12512;DHT22;6321;53.798;10.382;2022-08-19T13:40:32;23.80;99.90
12512;DHT22;6321;53.798;10.382;2022-08-19T13:43:02;24.10;99.90
12512;DHT22;6321;53.798;10.382;2022-08-19T13:45:29;25.00;99.90
12512;DHT22;6321;53.798;10.382;2022-08-19T13:47:59;24.40;99.90
12512;DHT22;6321;53.798;10.382;2022-08-19T13:55:25;24.40;99.90
12512;DHT22;6321;53.798;10.382;2022-08-19T13:57:53;24.50;99.90
12512;DHT22;6321;53.798;10.382;2022-08-19T14:00:21;24.40;99.90
12512;DHT22;6321;53.798;10.382;2022-08-19T14:05:18;24.50;99.90
12512;DHT22;6321;53.798;10.382;2022-08-19T14:07:44;24.60;99.90
12512;DHT22;6321;53.798;10.382;2022-08-19T14:10:12;24.30;99.90
12512;DHT22;6321;53.798;10.382;2022-08-19T14:12:38;24.30;99.90
12512;DHT22;6321;53.798;10.382;2022-08-19T14:17:32;24.50;99.90
12512;DHT22;6321;53.798;10.382;2022-08-19T14:20:01;25.50;99.90
12512;DHT22;6321;53.798;10.382;2022-08-19T14:22:29;24.80;99.90
12512;DHT22;6321;53.798;10.382;2022-08-19T14:24:56;24.80;99.90
12512;DHT22;6321;53.798;10.382;2022-08-19T14:27:22;25.00;99.90
12512;DHT22;6321;53.798;10.382;2022-08-19T14:32:17;24.90;99.90
12512;DHT22;6321;53.798;10.382;2022-08-19T14:34:43;25.00;99.90
12512;DHT22;6321;53.798;10.382;2022-08-19T14:37:12;25.00;99.90
12512;DHT22;6321;53.798;10.382;2022-08-19T14:39:40;25.30;99.90
12512;DHT22;6321;53.798;10.382;2022-08-19T14:42:08;25.10;99.90
12512;DHT22;6321;53.798;10.382;2022-08-19T14:44:34;25.30;99.90
12512;DHT22;6321;53.798;10.382;2022-08-19T14:49:28;25.10;99.90
12512;DHT22;6321;53.798;10.382;2022-08-19T14:54:20;25.10;99.90
12512;DHT22;6321;53.798;10.382;2022-08-19T14:56:46;25.20;99.90
12512;DHT22;6321;53.798;10.382;2022-08-19T14:59:12;24.90;99.90
12512;DHT22;6321;53.798;10.382;2022-08-19T15:01:38;24.90;99.90
12512;DHT22;6321;53.798;10.382;2022-08-19T15:04:04;24.80;99.90
12512;DHT22;6321;53.798;10.382;2022-08-19T15:06:30;24.80;99.90
12512;DHT22;6321;53.798;10.382;2022-08-19T15:11:25;24.70;99.90
12512;DHT22;6321;53.798;10.382;2022-08-19T15:13:56;24.70;99.90
12512;DHT22;6321;53.798;10.382;2022-08-19T15:16:23;24.50;99.90
12512;DHT22;6321;53.798;10.382;2022-08-19T15:21:18;24.50;99.90
12512;DHT22;6321;53.798;10.382;2022-08-19T15:23:49;25.00;99.90
12512;DHT22;6321;53.798;10.382;2022-08-19T15:26:16;24.50;99.90
12512;DHT22;6321;53.798;10.382;2022-08-19T15:28:42;24.60;99.90
12512;DHT22;6321;53.798;10.382;2022-08-19T15:31:09;24.40;99.90
12512;DHT22;6321;53.798;10.382;2022-08-19T15:36:04;24.10;99.90
12512;DHT22;6321;53.798;10.382;2022-08-19T15:38:31;24.10;99.90
12512;DHT22;6321;53.798;10.382;2022-08-19T15:40:59;23.80;99.90
12512;DHT22;6321;53.798;10.382;2022-08-19T15:46:16;23.80;99.90
12512;DHT22;6321;53.798;10.382;2022-08-19T15:48:44;23.90;99.90
12512;DHT22;6321;53.798;10.382;2022-08-19T15:51:10;23.80;99.90
12512;DHT22;6321;53.798;10.382;2022-08-19T15:53:36;23.80;99.90
12512;DHT22;6321;53.798;10.382;2022-08-19T15:58:29;23.80;99.90
12512;DHT22;6321;53.798;10.382;2022-08-19T16:01:13;23.90;99.90
12512;DHT22;6321;53.798;10.382;2022-08-19T16:03:59;24.40;99.90
12512;DHT22;6321;53.798;10.382;2022-08-19T16:06:47;24.10;99.90
12512;DHT22;6321;53.798;10.382;2022-08-19T16:09:14;24.00;99.90
12512;DHT22;6321;53.798;10.382;2022-08-19T16:11:40;24.00;99.90
12512;DHT22;6321;53.798;10.382;2022-08-19T16:14:07;24.20;99.90
12512;DHT22;6321;53.798;10.382;2022-08-19T16:16:34;23.90;99.90
12512;DHT22;6321;53.798;10.382;2022-08-19T16:19:03;23.70;99.90
12512;DHT22;6321;53.798;10.382;2022-08-19T16:21:33;23.80;99.90
12512;DHT22;6321;53.798;10.382;2022-08-19T16:24:01;23.80;99.90
12512;DHT22;6321;53.798;10.382;2022-08-19T16:26:27;24.00;99.90
12512;DHT22;6321;53.798;10.382;2022-08-19T16:29:04;23.90;99.90
12512;DHT22;6321;53.798;10.382;2022-08-19T16:31:30;24.10;99.90
12512;DHT22;6321;53.798;10.382;2022-08-19T16:33:56;24.00;99.90
12512;DHT22;6321;53.798;10.382;2022-08-19T16:36:23;24.40;99.90
12512;DHT22;6321;53.798;10.382;2022-08-19T16:43:44;24.30;99.90
12512;DHT22;6321;53.798;10.382;2022-08-19T16:46:10;24.20;99.90
12512;DHT22;6321;53.798;10.382;2022-08-19T16:48:37;24.30;99.90
12512;DHT22;6321;53.798;10.382;2022-08-19T16:53:37;24.20;99.90
12512;DHT22;6321;53.798;10.382;2022-08-19T16:56:03;24.40;99.90
12512;DHT22;6321;53.798;10.382;2022-08-19T16:58:30;24.40;99.90
12512;DHT22;6321;53.798;10.382;2022-08-19T17:03:27;24.40;99.90
12512;DHT22;6321;53.798;10.382;2022-08-19T17:05:55;24.30;99.90
12512;DHT22;6321;53.798;10.382;2022-08-19T17:08:23;24.50;99.90
12512;DHT22;6321;53.798;10.382;2022-08-19T17:10:55;24.50;99.90
12512;DHT22;6321;53.798;10.382;2022-08-19T17:13:23;24.40;99.90
12512;DHT22;6321;53.798;10.382;2022-08-19T17:15:52;24.40;99.90
12512;DHT22;6321;53.798;10.382;2022-08-19T17:18:19;24.10;99.90
12512;DHT22;6321;53.798;10.382;2022-08-19T17:20:47;24.10;99.90
12512;DHT22;6321;53.798;10.382;2022-08-19T17:28:09;23.70;99.90
12512;DHT22;6321;53.798;10.382;2022-08-19T17:30:35;23.70;99.90
12512;DHT22;6321;53.798;10.382;2022-08-19T17:33:02;23.60;99.90
12512;DHT22;6321;53.798;10.382;2022-08-19T17:35:29;23.20;99.90
12512;DHT22;6321;53.798;10.382;2022-08-19T17:37:55;23.50;99.90
12512;DHT22;6321;53.798;10.382;2022-08-19T17:40:21;23.20;99.90
12512;DHT22;6321;53.798;10.382;2022-08-19T17:42:47;23.20;99.90
12512;DHT22;6321;53.798;10.382;2022-08-19T17:45:13;23.80;99.90
12512;DHT22;6321;53.798;10.382;2022-08-19T17:47:39;23.60;99.90
12512;DHT22;6321;53.798;10.382;2022-08-19T17:50:08;23.60;99.90
12512;DHT22;6321;53.798;10.382;2022-08-19T17:52:34;23.60;99.90
12512;DHT22;6321;53.798;10.382;2022-08-19T17:57:28;22.80;99.90
12512;DHT22;6321;53.798;10.382;2022-08-19T18:02:23;22.60;99.90
12512;DHT22;6321;53.798;10.382;2022-08-19T18:07:16;22.40;99.90
12512;DHT22;6321;53.798;10.382;2022-08-19T18:09:46;21.60;99.90
12512;DHT22;6321;53.798;10.382;2022-08-19T18:12:21;22.40;99.90
12512;DHT22;6321;53.798;10.382;2022-08-19T18:14:47;22.20;99.90
12512;DHT22;6321;53.798;10.382;2022-08-19T18:17:14;22.70;99.90
12512;DHT22;6321;53.798;10.382;2022-08-19T18:19:45;22.30;99.90
12512;DHT22;6321;53.798;10.382;2022-08-19T18:22:29;22.20;99.90
12512;DHT22;6321;53.798;10.382;2022-08-19T18:24:56;21.60;99.90
12512;DHT22;6321;53.798;10.382;2022-08-19T18:27:23;21.90;99.90